sensor_id;sensor_type;location;lat;lon;timestamp;P1;durP1;ratioP1;P2;durP2;ratioP2
10162;SDS011;5123;52.556;13.384;2023-10-19T00:00:06;16.00;;;12.17;;
10162;SDS011;5123;52.556;13.384;2023-10-19T00:02:52;17.17;;;11.93;;
10162;SDS011;5123;52.556;13.384;2023-10-19T00:05:23;16.27;;;12.40;;
10162;SDS011;5123;52.556;13.384;2023-10-19T00:08:00;15.30;;;11.63;;
10162;SDS011;5123;52.556;13.384;2023-10-19T00:10:47;18.73;;;12.93;;
10162;SDS011;5123;52.556;13.384;2023-10-19T00:13:21;15.80;;;11.67;;
10162;SDS011;5123;52.556;13.384;2023-10-19T00:15:55;18.07;;;12.70;;
10162;SDS011;5123;52.556;13.384;2023-10-19T00:18:28;16.03;;;12.47;;
10162;SDS011;5123;52.556;13.384;2023-10-19T00:21:05;19.27;;;12.60;;
10162;SDS011;5123;52.556;13.384;2023-10-19T00:23:50;15.80;;;11.57;;
10162;SDS011;5123;52.556;13.384;2023-10-19T00:26:29;15.40;;;12.10;;
10162;SDS011;5123;52.556;13.384;2023-10-19T00:29:02;16.17;;;12.57;;
10162;SDS011;5123;52.556;13.384;2023-10-19T00:31:47;17.67;;;11.90;;
10162;SDS011;5123;52.556;13.384;2023-10-19T00:34:22;15.93;;;11.80;;
10162;SDS011;5123;52.556;13.384;2023-10-19T00:36:55;15.53;;;12.20;;
10162;SDS011;5123;52.556;13.384;2023-10-19T00:39:28;15.10;;;11.87;;
10162;SDS011;5123;52.556;13.384;2023-10-19T00:42:11;14.50;;;12.03;;
10162;SDS011;5123;52.556;13.384;2023-10-19T00:44:47;15.73;;;12.03;;
10162;SDS011;5123;52.556;13.384;2023-10-19T00:47:23;15.80;;;12.37;;
10162;SDS011;5123;52.556;13.384;2023-10-19T00:50:01;16.27;;;12.37;;
10162;SDS011;5123;52.556;13.384;2023-10-19T00:52:36;17.60;;;12.67;;
10162;SDS011;5123;52.556;13.384;2023-10-19T00:55:15;15.90;;;12.23;;
10162;SDS011;5123;52.556;13.384;2023-10-19T00:57:50;14.73;;;12.23;;
10162;SDS011;5123;52.556;13.384;2023-10-19T01:00:25;17.47;;;12.93;;
10162;SDS011;5123;52.556;13.384;2023-10-19T01:03:04;17.70;;;12.67;;
10162;SDS011;5123;52.556;13.384;2023-10-19T01:05:38;19.40;;;13.60;;
10162;SDS011;5123;52.556;13.384;2023-10-19T01:08:10;16.00;;;12.83;;
10162;SDS011;5123;52.556;13.384;2023-10-19T01:10:57;15.10;;;12.17;;
10162;SDS011;5123;52.556;13.384;2023-10-19T01:13:34;17.60;;;13.60;;
10162;SDS011;5123;52.556;13.384;2023-10-19T01:16:06;18.10;;;13.33;;
10162;SDS011;5123;52.556;13.384;2023-10-19T01:18:49;19.17;;;13.63;;
10162;SDS011;5123;52.556;13.384;2023-10-19T01:21:25;18.43;;;13.03;;
10162;SDS011;5123;52.556;13.384;2023-10-19T01:24:08;18.73;;;13.30;;
10162;SDS011;5123;52.556;13.384;2023-10-19T01:26:48;16.07;;;12.63;;
10162;SDS011;5123;52.556;13.384;2023-10-19T01:29:21;19.13;;;13.03;;
10162;SDS011;5123;52.556;13.384;2023-10-19T01:31:58;16.67;;;12.70;;
10162;SDS011;5123;52.556;13.384;2023-10-19T01:34:37;17.97;;;12.97;;
10162;SDS011;5123;52.556;13.384;2023-10-19T01:37:10;19.73;;;14.20;;
10162;SDS011;5123;52.556;13.384;2023-10-19T01:39:48;16.23;;;12.30;;
10162;SDS011;5123;52.556;13.384;2023-10-19T01:42:20;16.87;;;13.10;;
10162;SDS011;5123;52.556;13.384;2023-10-19T01:44:53;17.87;;;13.50;;
10162;SDS011;5123;52.556;13.384;2023-10-19T01:47:25;17.20;;;12.83;;
10162;SDS011;5123;52.556;13.384;2023-10-19T01:49:59;18.33;;;13.47;;
10162;SDS011;5123;52.556;13.384;2023-10-19T01:52:33;17.17;;;13.13;;
10162;SDS011;5123;52.556;13.384;2023-10-19T01:55:08;20.03;;;14.03;;
10162;SDS011;5123;52.556;13.384;2023-10-19T01:57:40;17.70;;;13.33;;
10162;SDS011;5123;52.556;13.384;2023-10-19T02:00:13;19.87;;;13.37;;
10162;SDS011;5123;52.556;13.384;2023-10-19T02:02:54;19.87;;;14.17;;
10162;SDS011;5123;52.556;13.384;2023-10-19T02:05:30;18.90;;;12.77;;
10162;SDS011;5123;52.556;13.384;2023-10-19T02:08:10;23.13;;;14.13;;
10162;SDS011;5123;52.556;13.384;2023-10-19T02:10:48;16.70;;;12.80;;
10162;SDS011;5123;52.556;13.384;2023-10-19T02:13:20;17.17;;;13.30;;
10162;SDS011;5123;52.556;13.384;2023-10-19T02:15:53;20.03;;;13.60;;
10162;SDS011;5123;52.556;13.384;2023-10-19T02:18:25;21.13;;;13.77;;
10162;SDS011;5123;52.556;13.384;2023-10-19T02:20:58;17.83;;;12.90;;
10162;SDS011;5123;52.556;13.384;2023-10-19T02:23:32;22.67;;;14.13;;
10162;SDS011;5123;52.556;13.384;2023-10-19T02:26:09;17.43;;;12.93;;
10162;SDS011;5123;52.556;13.384;2023-10-19T02:28:45;21.60;;;14.63;;
10162;SDS011;5123;52.556;13.384;2023-10-19T02:31:17;20.33;;;14.50;;
10162;SDS011;5123;52.556;13.384;2023-10-19T02:33:54;20.47;;;13.83;;
10162;SDS011;5123;52.556;13.384;2023-10-19T02:36:31;20.43;;;14.60;;
10162;SDS011;5123;52.556;13.384;2023-10-19T02:39:06;19.50;;;14.33;;
10162;SDS011;5123;52.556;13.384;2023-10-19T02:41:40;18.70;;;14.00;;
10162;SDS011;5123;52.556;13.384;2023-10-19T02:44:17;16.93;;;13.63;;
10162;SDS011;5123;52.556;13.384;2023-10-19T02:46:52;17.67;;;13.90;;
10162;SDS011;5123;52.556;13.384;2023-10-19T02:49:32;22.23;;;15.50;;
10162;SDS011;5123;52.556;13.384;2023-10-19T02:52:05;19.30;;;13.93;;
10162;SDS011;5123;52.556;13.384;2023-10-19T02:54:37;20.90;;;14.00;;
10162;SDS011;5123;52.556;13.384;2023-10-19T02:57:11;20.23;;;14.20;;
10162;SDS011;5123;52.556;13.384;2023-10-19T02:59:45;19.67;;;14.60;;
10162;SDS011;5123;52.556;13.384;2023-10-19T03:02:21;21.47;;;14.53;;
10162;SDS011;5123;52.556;13.384;2023-10-19T03:04:57;20.87;;;14.20;;
10162;SDS011;5123;52.556;13.384;2023-10-19T03:07:30;18.77;;;13.93;;
10162;SDS011;5123;52.556;13.384;2023-10-19T03:10:04;19.07;;;13.87;;
10162;SDS011;5123;52.556;13.384;2023-10-19T03:12:38;21.37;;;14.53;;
10162;SDS011;5123;52.556;13.384;2023-10-19T03:15:14;18.40;;;13.83;;
10162;SDS011;5123;52.556;13.384;2023-10-19T03:17:46;22.60;;;14.50;;
10162;SDS011;5123;52.556;13.384;2023-10-19T03:20:20;17.17;;;13.90;;
10162;SDS011;5123;52.556;13.384;2023-10-19T03:22:55;20.40;;;14.50;;
10162;SDS011;5123;52.556;13.384;2023-10-19T03:25:32;20.53;;;13.90;;
10162;SDS011;5123;52.556;13.384;2023-10-19T03:28:28;19.93;;;13.90;;
10162;SDS011;5123;52.556;13.384;2023-10-19T03:31:00;21.43;;;13.57;;
10162;SDS011;5123;52.556;13.384;2023-10-19T03:33:36;22.07;;;14.03;;
10162;SDS011;5123;52.556;13.384;2023-10-19T03:36:12;20.33;;;14.30;;
10162;SDS011;5123;52.556;13.384;2023-10-19T03:38:45;18.93;;;14.00;;
10162;SDS011;5123;52.556;13.384;2023-10-19T03:41:20;19.93;;;15.37;;
10162;SDS011;5123;52.556;13.384;2023-10-19T03:43:58;19.73;;;14.27;;
10162;SDS011;5123;52.556;13.384;2023-10-19T03:46:32;20.23;;;14.80;;
10162;SDS011;5123;52.556;13.384;2023-10-19T03:49:09;20.27;;;14.90;;
10162;SDS011;5123;52.556;13.384;2023-10-19T03:51:43;19.23;;;13.87;;
10162;SDS011;5123;52.556;13.384;2023-10-19T03:54:29;22.37;;;14.80;;
10162;SDS011;5123;52.556;13.384;2023-10-19T03:57:04;22.40;;;14.63;;
10162;SDS011;5123;52.556;13.384;2023-10-19T03:59:44;20.00;;;14.53;;
10162;SDS011;5123;52.556;13.384;2023-10-19T04:02:18;22.87;;;16.00;;
10162;SDS011;5123;52.556;13.384;2023-10-19T04:04:55;20.50;;;15.50;;
10162;SDS011;5123;52.556;13.384;2023-10-19T04:07:29;20.80;;;14.60;;
10162;SDS011;5123;52.556;13.384;2023-10-19T04:10:03;19.23;;;14.57;;
10162;SDS011;5123;52.556;13.384;2023-10-19T04:13:01;20.53;;;15.70;;
10162;SDS011;5123;52.556;13.384;2023-10-19T04:15:35;20.73;;;15.67;;
10162;SDS011;5123;52.556;13.384;2023-10-19T04:18:08;21.80;;;16.03;;
10162;SDS011;5123;52.556;13.384;2023-10-19T04:20:41;19.83;;;14.07;;
10162;SDS011;5123;52.556;13.384;2023-10-19T04:23:29;24.47;;;15.57;;
10162;SDS011;5123;52.556;13.384;2023-10-19T04:26:06;22.50;;;15.80;;
10162;SDS011;5123;52.556;13.384;2023-10-19T04:28:44;22.60;;;15.40;;
10162;SDS011;5123;52.556;13.384;2023-10-19T04:31:23;24.03;;;16.30;;
10162;SDS011;5123;52.556;13.384;2023-10-19T04:33:56;21.43;;;15.73;;
10162;SDS011;5123;52.556;13.384;2023-10-19T04:36:29;22.73;;;16.47;;
10162;SDS011;5123;52.556;13.384;2023-10-19T04:39:02;20.87;;;15.30;;
10162;SDS011;5123;52.556;13.384;2023-10-19T04:41:36;20.00;;;14.87;;
10162;SDS011;5123;52.556;13.384;2023-10-19T04:44:10;22.47;;;15.50;;
10162;SDS011;5123;52.556;13.384;2023-10-19T04:46:44;24.13;;;16.27;;
10162;SDS011;5123;52.556;13.384;2023-10-19T04:49:17;21.53;;;16.03;;
10162;SDS011;5123;52.556;13.384;2023-10-19T04:51:51;23.10;;;16.37;;
10162;SDS011;5123;52.556;13.384;2023-10-19T04:54:24;24.20;;;15.90;;
10162;SDS011;5123;52.556;13.384;2023-10-19T04:56:57;19.50;;;15.60;;
10162;SDS011;5123;52.556;13.384;2023-10-19T04:59:31;23.27;;;16.63;;
10162;SDS011;5123;52.556;13.384;2023-10-19T05:02:06;21.57;;;15.20;;
10162;SDS011;5123;52.556;13.384;2023-10-19T05:04:39;23.37;;;16.57;;
10162;SDS011;5123;52.556;13.384;2023-10-19T05:07:13;25.37;;;17.63;;
10162;SDS011;5123;52.556;13.384;2023-10-19T05:09:48;21.73;;;15.43;;
10162;SDS011;5123;52.556;13.384;2023-10-19T05:12:21;20.93;;;15.40;;
10162;SDS011;5123;52.556;13.384;2023-10-19T05:14:53;22.43;;;17.70;;
10162;SDS011;5123;52.556;13.384;2023-10-19T05:17:28;20.97;;;15.40;;
10162;SDS011;5123;52.556;13.384;2023-10-19T05:20:01;23.67;;;16.97;;
10162;SDS011;5123;52.556;13.384;2023-10-19T05:22:37;26.23;;;17.03;;
10162;SDS011;5123;52.556;13.384;2023-10-19T05:25:10;30.27;;;17.40;;
10162;SDS011;5123;52.556;13.384;2023-10-19T05:27:43;24.30;;;16.57;;
10162;SDS011;5123;52.556;13.384;2023-10-19T05:30:17;20.40;;;16.57;;
10162;SDS011;5123;52.556;13.384;2023-10-19T05:32:52;25.83;;;17.10;;
10162;SDS011;5123;52.556;13.384;2023-10-19T05:35:25;20.23;;;16.17;;
10162;SDS011;5123;52.556;13.384;2023-10-19T05:37:58;27.67;;;17.20;;
10162;SDS011;5123;52.556;13.384;2023-10-19T05:40:32;26.70;;;18.17;;
10162;SDS011;5123;52.556;13.384;2023-10-19T05:43:07;25.80;;;18.07;;
10162;SDS011;5123;52.556;13.384;2023-10-19T05:45:40;24.23;;;17.37;;
10162;SDS011;5123;52.556;13.384;2023-10-19T05:48:14;25.73;;;18.20;;
10162;SDS011;5123;52.556;13.384;2023-10-19T05:50:47;25.83;;;16.23;;
10162;SDS011;5123;52.556;13.384;2023-10-19T05:53:21;25.87;;;18.23;;
10162;SDS011;5123;52.556;13.384;2023-10-19T05:55:54;22.50;;;16.47;;
10162;SDS011;5123;52.556;13.384;2023-10-19T05:58:27;25.67;;;17.33;;
10162;SDS011;5123;52.556;13.384;2023-10-19T06:00:59;26.73;;;18.13;;
10162;SDS011;5123;52.556;13.384;2023-10-19T06:03:34;25.07;;;18.43;;
10162;SDS011;5123;52.556;13.384;2023-10-19T06:06:09;25.50;;;18.43;;
10162;SDS011;5123;52.556;13.384;2023-10-19T06:08:42;24.30;;;18.03;;
10162;SDS011;5123;52.556;13.384;2023-10-19T06:11:14;28.57;;;18.13;;
10162;SDS011;5123;52.556;13.384;2023-10-19T06:13:47;28.40;;;18.60;;
10162;SDS011;5123;52.556;13.384;2023-10-19T06:16:27;25.87;;;18.07;;
10162;SDS011;5123;52.556;13.384;2023-10-19T06:19:01;27.27;;;18.80;;
10162;SDS011;5123;52.556;13.384;2023-10-19T06:21:34;27.23;;;19.27;;
10162;SDS011;5123;52.556;13.384;2023-10-19T06:24:11;29.63;;;19.83;;
10162;SDS011;5123;52.556;13.384;2023-10-19T06:26:46;26.60;;;18.20;;
10162;SDS011;5123;52.556;13.384;2023-10-19T06:29:22;27.53;;;17.83;;
10162;SDS011;5123;52.556;13.384;2023-10-19T06:32:01;26.23;;;18.77;;
10162;SDS011;5123;52.556;13.384;2023-10-19T06:34:35;24.97;;;18.73;;
10162;SDS011;5123;52.556;13.384;2023-10-19T06:37:09;28.03;;;18.57;;
10162;SDS011;5123;52.556;13.384;2023-10-19T06:39:42;28.17;;;20.60;;
10162;SDS011;5123;52.556;13.384;2023-10-19T06:42:16;27.73;;;18.67;;
10162;SDS011;5123;52.556;13.384;2023-10-19T06:44:49;25.00;;;18.97;;
10162;SDS011;5123;52.556;13.384;2023-10-19T06:47:24;28.47;;;20.13;;
10162;SDS011;5123;52.556;13.384;2023-10-19T06:49:59;27.77;;;19.37;;
10162;SDS011;5123;52.556;13.384;2023-10-19T06:52:33;29.40;;;21.07;;
10162;SDS011;5123;52.556;13.384;2023-10-19T06:55:07;24.33;;;19.53;;
10162;SDS011;5123;52.556;13.384;2023-10-19T06:57:46;29.97;;;20.70;;
10162;SDS011;5123;52.556;13.384;2023-10-19T07:00:21;31.27;;;22.57;;
10162;SDS011;5123;52.556;13.384;2023-10-19T07:02:54;30.67;;;19.67;;
10162;SDS011;5123;52.556;13.384;2023-10-19T07:05:29;24.37;;;18.87;;
10162;SDS011;5123;52.556;13.384;2023-10-19T07:08:02;25.23;;;19.23;;
10162;SDS011;5123;52.556;13.384;2023-10-19T07:10:38;26.37;;;19.43;;
10162;SDS011;5123;52.556;13.384;2023-10-19T07:13:11;31.33;;;20.13;;
10162;SDS011;5123;52.556;13.384;2023-10-19T07:15:47;27.17;;;19.57;;
10162;SDS011;5123;52.556;13.384;2023-10-19T07:18:20;25.43;;;18.97;;
10162;SDS011;5123;52.556;13.384;2023-10-19T07:20:54;28.80;;;19.00;;
10162;SDS011;5123;52.556;13.384;2023-10-19T07:23:34;24.20;;;17.37;;
10162;SDS011;5123;52.556;13.384;2023-10-19T07:26:09;24.80;;;17.47;;
10162;SDS011;5123;52.556;13.384;2023-10-19T07:28:42;24.60;;;17.93;;
10162;SDS011;5123;52.556;13.384;2023-10-19T07:31:18;25.90;;;19.33;;
10162;SDS011;5123;52.556;13.384;2023-10-19T07:33:53;26.70;;;18.00;;
10162;SDS011;5123;52.556;13.384;2023-10-19T07:36:30;25.97;;;18.00;;
10162;SDS011;5123;52.556;13.384;2023-10-19T07:39:02;25.90;;;18.27;;
10162;SDS011;5123;52.556;13.384;2023-10-19T07:41:36;26.60;;;17.80;;
10162;SDS011;5123;52.556;13.384;2023-10-19T07:44:09;26.57;;;19.37;;
10162;SDS011;5123;52.556;13.384;2023-10-19T07:46:43;26.90;;;18.00;;
10162;SDS011;5123;52.556;13.384;2023-10-19T07:49:18;22.77;;;16.83;;
10162;SDS011;5123;52.556;13.384;2023-10-19T07:51:52;27.00;;;17.77;;
10162;SDS011;5123;52.556;13.384;2023-10-19T07:54:27;24.93;;;17.93;;
10162;SDS011;5123;52.556;13.384;2023-10-19T07:57:01;27.63;;;18.03;;
10162;SDS011;5123;52.556;13.384;2023-10-19T07:59:40;24.77;;;18.73;;
10162;SDS011;5123;52.556;13.384;2023-10-19T08:02:14;23.67;;;18.20;;
10162;SDS011;5123;52.556;13.384;2023-10-19T08:04:47;26.23;;;18.60;;
10162;SDS011;5123;52.556;13.384;2023-10-19T08:07:21;24.13;;;17.97;;
10162;SDS011;5123;52.556;13.384;2023-10-19T08:10:06;30.13;;;18.70;;
10162;SDS011;5123;52.556;13.384;2023-10-19T08:12:41;25.47;;;17.73;;
10162;SDS011;5123;52.556;13.384;2023-10-19T08:15:14;25.07;;;18.33;;
10162;SDS011;5123;52.556;13.384;2023-10-19T08:17:48;23.93;;;17.90;;
10162;SDS011;5123;52.556;13.384;2023-10-19T08:20:23;24.47;;;17.47;;
10162;SDS011;5123;52.556;13.384;2023-10-19T08:23:03;29.07;;;18.57;;
10162;SDS011;5123;52.556;13.384;2023-10-19T08:25:39;24.20;;;16.53;;
10162;SDS011;5123;52.556;13.384;2023-10-19T08:28:27;22.83;;;16.90;;
10162;SDS011;5123;52.556;13.384;2023-10-19T08:31:00;25.83;;;18.60;;
10162;SDS011;5123;52.556;13.384;2023-10-19T08:33:33;23.13;;;18.80;;
10162;SDS011;5123;52.556;13.384;2023-10-19T08:36:17;23.30;;;17.67;;
10162;SDS011;5123;52.556;13.384;2023-10-19T08:38:52;30.57;;;21.73;;
10162;SDS011;5123;52.556;13.384;2023-10-19T08:41:27;23.43;;;17.47;;
10162;SDS011;5123;52.556;13.384;2023-10-19T08:44:00;25.57;;;18.03;;
10162;SDS011;5123;52.556;13.384;2023-10-19T08:46:33;28.40;;;21.60;;
10162;SDS011;5123;52.556;13.384;2023-10-19T08:49:07;26.20;;;18.20;;
10162;SDS011;5123;52.556;13.384;2023-10-19T08:51:44;23.40;;;16.67;;
10162;SDS011;5123;52.556;13.384;2023-10-19T08:54:18;23.63;;;17.33;;
10162;SDS011;5123;52.556;13.384;2023-10-19T08:56:51;25.73;;;17.80;;
10162;SDS011;5123;52.556;13.384;2023-10-19T08:59:24;26.53;;;17.27;;
10162;SDS011;5123;52.556;13.384;2023-10-19T09:02:01;28.70;;;19.30;;
10162;SDS011;5123;52.556;13.384;2023-10-19T09:04:40;25.37;;;17.87;;
10162;SDS011;5123;52.556;13.384;2023-10-19T09:07:16;25.13;;;17.57;;
10162;SDS011;5123;52.556;13.384;2023-10-19T09:09:51;23.57;;;16.70;;
10162;SDS011;5123;52.556;13.384;2023-10-19T09:12:23;21.80;;;16.13;;
10162;SDS011;5123;52.556;13.384;2023-10-19T09:14:56;22.80;;;17.80;;
10162;SDS011;5123;52.556;13.384;2023-10-19T09:17:29;22.30;;;17.17;;
10162;SDS011;5123;52.556;13.384;2023-10-19T09:20:03;24.23;;;17.63;;
10162;SDS011;5123;52.556;13.384;2023-10-19T09:22:41;26.33;;;17.37;;
10162;SDS011;5123;52.556;13.384;2023-10-19T09:25:17;24.67;;;17.40;;
10162;SDS011;5123;52.556;13.384;2023-10-19T09:27:51;25.03;;;17.73;;
10162;SDS011;5123;52.556;13.384;2023-10-19T09:30:24;21.67;;;17.73;;
10162;SDS011;5123;52.556;13.384;2023-10-19T09:32:57;24.33;;;17.73;;
10162;SDS011;5123;52.556;13.384;2023-10-19T09:35:30;22.67;;;17.37;;
10162;SDS011;5123;52.556;13.384;2023-10-19T09:38:06;25.27;;;17.20;;
10162;SDS011;5123;52.556;13.384;2023-10-19T09:40:40;22.03;;;17.57;;
10162;SDS011;5123;52.556;13.384;2023-10-19T09:43:14;23.83;;;18.17;;
10162;SDS011;5123;52.556;13.384;2023-10-19T09:45:48;24.83;;;17.90;;
10162;SDS011;5123;52.556;13.384;2023-10-19T09:48:22;23.73;;;18.37;;
10162;SDS011;5123;52.556;13.384;2023-10-19T09:50:56;21.27;;;16.43;;
10162;SDS011;5123;52.556;13.384;2023-10-19T09:53:31;32.00;;;21.37;;
10162;SDS011;5123;52.556;13.384;2023-10-19T09:56:08;26.73;;;18.17;;
10162;SDS011;5123;52.556;13.384;2023-10-19T09:58:46;26.80;;;18.90;;
10162;SDS011;5123;52.556;13.384;2023-10-19T10:01:19;23.60;;;17.00;;
10162;SDS011;5123;52.556;13.384;2023-10-19T10:03:55;24.60;;;16.27;;
10162;SDS011;5123;52.556;13.384;2023-10-19T10:09:25;21.93;;;16.97;;
10162;SDS011;5123;52.556;13.384;2023-10-19T10:15:04;23.47;;;17.30;;
10162;SDS011;5123;52.556;13.384;2023-10-19T10:17:39;26.57;;;17.80;;
10162;SDS011;5123;52.556;13.384;2023-10-19T10:20:30;22.10;;;17.30;;
10162;SDS011;5123;52.556;13.384;2023-10-19T10:26:03;26.90;;;17.27;;
10162;SDS011;5123;52.556;13.384;2023-10-19T10:28:38;23.77;;;17.70;;
10162;SDS011;5123;52.556;13.384;2023-10-19T10:31:13;29.07;;;17.17;;
10162;SDS011;5123;52.556;13.384;2023-10-19T10:33:48;26.23;;;18.07;;
10162;SDS011;5123;52.556;13.384;2023-10-19T10:36:23;24.43;;;17.93;;
10162;SDS011;5123;52.556;13.384;2023-10-19T10:39:01;25.27;;;17.37;;
10162;SDS011;5123;52.556;13.384;2023-10-19T10:41:36;23.83;;;18.23;;
10162;SDS011;5123;52.556;13.384;2023-10-19T10:44:09;25.87;;;17.77;;
10162;SDS011;5123;52.556;13.384;2023-10-19T10:46:43;31.30;;;19.60;;
10162;SDS011;5123;52.556;13.384;2023-10-19T10:49:17;27.30;;;19.63;;
10162;SDS011;5123;52.556;13.384;2023-10-19T10:51:50;27.33;;;19.77;;
10162;SDS011;5123;52.556;13.384;2023-10-19T10:54:25;26.43;;;19.87;;
10162;SDS011;5123;52.556;13.384;2023-10-19T10:56:58;30.30;;;21.43;;
10162;SDS011;5123;52.556;13.384;2023-10-19T10:59:31;29.00;;;21.17;;
10162;SDS011;5123;52.556;13.384;2023-10-19T11:02:17;28.37;;;20.90;;
10162;SDS011;5123;52.556;13.384;2023-10-19T11:04:53;28.50;;;20.07;;
10162;SDS011;5123;52.556;13.384;2023-10-19T11:07:26;29.30;;;21.37;;
10162;SDS011;5123;52.556;13.384;2023-10-19T11:09:59;27.67;;;19.60;;
10162;SDS011;5123;52.556;13.384;2023-10-19T11:12:33;27.07;;;20.63;;
10162;SDS011;5123;52.556;13.384;2023-10-19T11:15:06;32.20;;;20.57;;
10162;SDS011;5123;52.556;13.384;2023-10-19T11:17:43;28.50;;;20.17;;
10162;SDS011;5123;52.556;13.384;2023-10-19T11:20:23;26.87;;;20.83;;
10162;SDS011;5123;52.556;13.384;2023-10-19T11:22:57;28.63;;;21.33;;
10162;SDS011;5123;52.556;13.384;2023-10-19T11:25:34;32.13;;;22.03;;
10162;SDS011;5123;52.556;13.384;2023-10-19T11:28:16;29.97;;;21.00;;
10162;SDS011;5123;52.556;13.384;2023-10-19T11:30:49;27.53;;;20.93;;
10162;SDS011;5123;52.556;13.384;2023-10-19T11:33:23;29.23;;;21.13;;
10162;SDS011;5123;52.556;13.384;2023-10-19T11:35:57;26.33;;;20.27;;
10162;SDS011;5123;52.556;13.384;2023-10-19T11:38:29;31.43;;;22.17;;
10162;SDS011;5123;52.556;13.384;2023-10-19T11:41:03;29.07;;;20.93;;
10162;SDS011;5123;52.556;13.384;2023-10-19T11:43:36;31.20;;;21.43;;
10162;SDS011;5123;52.556;13.384;2023-10-19T11:46:11;28.30;;;22.17;;
10162;SDS011;5123;52.556;13.384;2023-10-19T11:48:47;33.03;;;20.87;;
10162;SDS011;5123;52.556;13.384;2023-10-19T11:51:20;31.00;;;22.90;;
10162;SDS011;5123;52.556;13.384;2023-10-19T11:53:53;29.67;;;21.87;;
10162;SDS011;5123;52.556;13.384;2023-10-19T11:56:28;27.37;;;20.93;;
10162;SDS011;5123;52.556;13.384;2023-10-19T11:59:01;32.17;;;23.47;;
10162;SDS011;5123;52.556;13.384;2023-10-19T12:01:34;31.47;;;22.93;;
10162;SDS011;5123;52.556;13.384;2023-10-19T12:04:08;28.13;;;21.40;;
10162;SDS011;5123;52.556;13.384;2023-10-19T12:06:41;31.97;;;22.90;;
10162;SDS011;5123;52.556;13.384;2023-10-19T12:09:16;33.77;;;23.67;;
10162;SDS011;5123;52.556;13.384;2023-10-19T12:11:49;32.03;;;23.13;;
10162;SDS011;5123;52.556;13.384;2023-10-19T12:14:24;32.80;;;23.20;;
10162;SDS011;5123;52.556;13.384;2023-10-19T12:16:57;32.80;;;24.43;;
10162;SDS011;5123;52.556;13.384;2023-10-19T12:19:33;31.37;;;22.57;;
10162;SDS011;5123;52.556;13.384;2023-10-19T12:22:06;32.47;;;23.47;;
10162;SDS011;5123;52.556;13.384;2023-10-19T12:24:42;33.90;;;22.90;;
10162;SDS011;5123;52.556;13.384;2023-10-19T12:27:15;36.17;;;24.33;;
10162;SDS011;5123;52.556;13.384;2023-10-19T12:29:49;33.90;;;24.40;;
10162;SDS011;5123;52.556;13.384;2023-10-19T12:32:24;30.50;;;23.03;;
10162;SDS011;5123;52.556;13.384;2023-10-19T12:34:58;36.67;;;24.73;;
10162;SDS011;5123;52.556;13.384;2023-10-19T12:37:31;36.90;;;26.27;;
10162;SDS011;5123;52.556;13.384;2023-10-19T12:40:05;39.00;;;26.50;;
10162;SDS011;5123;52.556;13.384;2023-10-19T12:42:59;35.30;;;24.67;;
10162;SDS011;5123;52.556;13.384;2023-10-19T12:45:35;34.77;;;25.23;;
10162;SDS011;5123;52.556;13.384;2023-10-19T12:48:10;33.53;;;25.37;;
10162;SDS011;5123;52.556;13.384;2023-10-19T12:50:44;35.80;;;25.87;;
10162;SDS011;5123;52.556;13.384;2023-10-19T12:53:17;37.10;;;24.70;;
10162;SDS011;5123;52.556;13.384;2023-10-19T12:55:50;32.50;;;23.87;;
10162;SDS011;5123;52.556;13.384;2023-10-19T12:58:24;33.73;;;24.13;;
10162;SDS011;5123;52.556;13.384;2023-10-19T13:00:58;34.40;;;24.50;;
10162;SDS011;5123;52.556;13.384;2023-10-19T13:03:31;33.03;;;24.97;;
10162;SDS011;5123;52.556;13.384;2023-10-19T13:06:06;35.17;;;24.03;;
10162;SDS011;5123;52.556;13.384;2023-10-19T13:08:39;33.73;;;24.30;;
10162;SDS011;5123;52.556;13.384;2023-10-19T13:11:12;35.53;;;25.40;;
10162;SDS011;5123;52.556;13.384;2023-10-19T13:13:49;35.23;;;26.17;;
10162;SDS011;5123;52.556;13.384;2023-10-19T13:16:23;31.00;;;23.43;;
10162;SDS011;5123;52.556;13.384;2023-10-19T13:18:56;32.73;;;24.97;;
10162;SDS011;5123;52.556;13.384;2023-10-19T13:21:30;34.27;;;25.40;;
10162;SDS011;5123;52.556;13.384;2023-10-19T13:24:04;38.73;;;28.37;;
10162;SDS011;5123;52.556;13.384;2023-10-19T13:26:39;39.77;;;27.10;;
10162;SDS011;5123;52.556;13.384;2023-10-19T13:29:13;33.10;;;24.97;;
10162;SDS011;5123;52.556;13.384;2023-10-19T13:31:48;34.37;;;23.93;;
10162;SDS011;5123;52.556;13.384;2023-10-19T13:34:22;48.33;;;27.40;;
10162;SDS011;5123;52.556;13.384;2023-10-19T13:36:56;33.23;;;23.80;;
10162;SDS011;5123;52.556;13.384;2023-10-19T13:39:29;33.10;;;24.03;;
10162;SDS011;5123;52.556;13.384;2023-10-19T13:42:03;33.60;;;24.77;;
10162;SDS011;5123;52.556;13.384;2023-10-19T13:44:37;34.50;;;24.53;;
10162;SDS011;5123;52.556;13.384;2023-10-19T13:47:10;33.50;;;22.37;;
10162;SDS011;5123;52.556;13.384;2023-10-19T13:49:43;32.73;;;23.23;;
10162;SDS011;5123;52.556;13.384;2023-10-19T13:52:19;32.10;;;23.23;;
10162;SDS011;5123;52.556;13.384;2023-10-19T13:54:55;31.47;;;23.53;;
10162;SDS011;5123;52.556;13.384;2023-10-19T13:57:30;29.90;;;23.17;;
10162;SDS011;5123;52.556;13.384;2023-10-19T14:00:03;31.30;;;23.23;;
10162;SDS011;5123;52.556;13.384;2023-10-19T14:02:39;34.00;;;23.73;;
10162;SDS011;5123;52.556;13.384;2023-10-19T14:05:12;31.87;;;21.90;;
10162;SDS011;5123;52.556;13.384;2023-10-19T14:07:46;32.43;;;23.10;;
10162;SDS011;5123;52.556;13.384;2023-10-19T14:10:19;32.40;;;23.80;;
10162;SDS011;5123;52.556;13.384;2023-10-19T14:12:53;32.33;;;23.57;;
10162;SDS011;5123;52.556;13.384;2023-10-19T14:15:26;31.10;;;23.50;;
10162;SDS011;5123;52.556;13.384;2023-10-19T14:17:59;32.80;;;23.43;;
10162;SDS011;5123;52.556;13.384;2023-10-19T14:20:32;34.43;;;25.37;;
10162;SDS011;5123;52.556;13.384;2023-10-19T14:23:06;35.17;;;24.00;;
10162;SDS011;5123;52.556;13.384;2023-10-19T14:25:40;31.13;;;23.47;;
10162;SDS011;5123;52.556;13.384;2023-10-19T14:28:14;32.03;;;23.37;;
10162;SDS011;5123;52.556;13.384;2023-10-19T14:30:47;35.90;;;23.00;;
10162;SDS011;5123;52.556;13.384;2023-10-19T14:33:23;33.23;;;23.97;;
10162;SDS011;5123;52.556;13.384;2023-10-19T14:35:57;29.77;;;22.87;;
10162;SDS011;5123;52.556;13.384;2023-10-19T14:38:31;30.23;;;23.10;;
10162;SDS011;5123;52.556;13.384;2023-10-19T14:41:03;33.13;;;23.73;;
10162;SDS011;5123;52.556;13.384;2023-10-19T14:43:37;33.47;;;23.87;;
10162;SDS011;5123;52.556;13.384;2023-10-19T14:46:10;34.17;;;24.17;;
10162;SDS011;5123;52.556;13.384;2023-10-19T14:48:43;30.77;;;23.03;;
10162;SDS011;5123;52.556;13.384;2023-10-19T14:51:16;31.63;;;23.90;;
10162;SDS011;5123;52.556;13.384;2023-10-19T14:53:50;34.60;;;24.80;;
10162;SDS011;5123;52.556;13.384;2023-10-19T14:56:23;40.37;;;28.77;;
10162;SDS011;5123;52.556;13.384;2023-10-19T14:58:58;44.33;;;31.57;;
10162;SDS011;5123;52.556;13.384;2023-10-19T15:01:31;41.73;;;27.93;;
10162;SDS011;5123;52.556;13.384;2023-10-19T15:04:04;46.30;;;29.73;;
10162;SDS011;5123;52.556;13.384;2023-10-19T15:06:37;44.03;;;30.70;;
10162;SDS011;5123;52.556;13.384;2023-10-19T15:09:11;39.63;;;28.07;;
10162;SDS011;5123;52.556;13.384;2023-10-19T15:11:51;36.43;;;25.47;;
10162;SDS011;5123;52.556;13.384;2023-10-19T15:14:25;37.47;;;26.20;;